sensor_id;sensor_type;location;lat;lon;timestamp;pressure;altitude;pressure_sealevel;temperature;humidity
22047;BME280;11187;49.412;20.956;2023-05-12T00:02:25;95286.09;;;7.53;82.76
22047;BME280;11187;49.412;20.956;2023-05-12T00:04:59;95287.00;;;7.49;82.94
22047;BME280;11187;49.412;20.956;2023-05-12T00:07:45;95290.38;;;7.50;83.04
22047;BME280;11187;49.412;20.956;2023-05-12T00:10:19;95289.53;;;7.48;82.90
22047;BME280;11187;49.412;20.956;2023-05-12T00:13:13;95286.97;;;7.46;82.96
22047;BME280;11187;49.412;20.956;2023-05-12T00:15:47;95293.81;;;7.41;82.91
22047;BME280;11187;49.412;20.956;2023-05-12T00:18:41;95285.31;;;7.39;83.57
22047;BME280;11187;49.412;20.956;2023-05-12T00:21:35;95290.44;;;7.36;83.64
22047;BME280;11187;49.412;20.956;2023-05-12T00:24:09;95294.66;;;7.31;83.62
22047;BME280;11187;49.412;20.956;2023-05-12T00:27:03;95295.56;;;7.21;84.45
22047;BME280;11187;49.412;20.956;2023-05-12T00:29:36;95284.56;;;7.11;84.94
22047;BME280;11187;49.412;20.956;2023-05-12T00:32:29;95282.84;;;7.08;85.09
22047;BME280;11187;49.412;20.956;2023-05-12T00:35:23;95293.88;;;7.03;85.17
22047;BME280;11187;49.412;20.956;2023-05-12T00:38:17;95301.53;;;6.97;85.49
22047;BME280;11187;49.412;20.956;2023-05-12T00:41:11;95298.16;;;6.93;85.86
22047;BME280;11187;49.412;20.956;2023-05-12T00:43:45;95300.69;;;6.90;85.42
22047;BME280;11187;49.412;20.956;2023-05-12T00:46:38;95296.47;;;6.84;86.46
22047;BME280;11187;49.412;20.956;2023-05-12T00:49:32;95301.56;;;6.83;86.29
22047;BME280;11187;49.412;20.956;2023-05-12T00:52:06;95298.16;;;6.81;86.09
22047;BME280;11187;49.412;20.956;2023-05-12T00:55:00;95295.63;;;6.78;86.73
22047;BME280;11187;49.412;20.956;2023-05-12T00:57:34;95296.47;;;6.78;86.44
22047;BME280;11187;49.412;20.956;2023-05-12T01:00:21;95304.97;;;6.73;86.50
22047;BME280;11187;49.412;20.956;2023-05-12T01:02:55;95307.50;;;6.71;86.89
22047;BME280;11187;49.412;20.956;2023-05-12T01:05:51;95309.19;;;6.69;86.87
22047;BME280;11187;49.412;20.956;2023-05-12T01:08:28;95312.59;;;6.66;87.09
22047;BME280;11187;49.412;20.956;2023-05-12T01:11:15;95314.28;;;6.64;87.41
22047;BME280;11187;49.412;20.956;2023-05-12T01:13:49;95322.75;;;6.60;87.09
22047;BME280;11187;49.412;20.956;2023-05-12T01:16:41;95316.00;;;6.61;87.72
22047;BME280;11187;49.412;20.956;2023-05-12T01:19:46;95319.38;;;6.60;87.61
22047;BME280;11187;49.412;20.956;2023-05-12T01:22:41;95320.22;;;6.62;87.79
22047;BME280;11187;49.412;20.956;2023-05-12T01:25:36;95315.13;;;6.62;87.58
22047;BME280;11187;49.412;20.956;2023-05-12T01:28:11;95320.22;;;6.60;87.76
22047;BME280;11187;49.412;20.956;2023-05-12T01:30:59;95314.28;;;6.58;88.35
22047;BME280;11187;49.412;20.956;2023-05-12T01:33:33;95310.06;;;6.54;88.18
22047;BME280;11187;49.412;20.956;2023-05-12T01:36:20;95317.69;;;6.50;89.68
22047;BME280;11187;49.412;20.956;2023-05-12T01:38:54;95305.81;;;6.50;88.69
22047;BME280;11187;49.412;20.956;2023-05-12T01:41:47;95312.59;;;6.51;88.78
22047;BME280;11187;49.412;20.956;2023-05-12T01:44:41;95315.97;;;6.48;88.72
22047;BME280;11187;49.412;20.956;2023-05-12T01:47:15;95311.75;;;6.43;88.52
22047;BME280;11187;49.412;20.956;2023-05-12T01:50:01;95309.19;;;6.43;89.12
22047;BME280;11187;49.412;20.956;2023-05-12T01:52:35;95315.13;;;6.42;88.99
22047;BME280;11187;49.412;20.956;2023-05-12T01:55:23;95319.38;;;6.38;89.26
22047;BME280;11187;49.412;20.956;2023-05-12T01:57:57;95316.81;;;6.37;89.34
22047;BME280;11187;49.412;20.956;2023-05-12T02:00:43;95317.66;;;6.36;90.08
22047;BME280;11187;49.412;20.956;2023-05-12T02:03:17;95318.53;;;6.36;89.68
22047;BME280;11187;49.412;20.956;2023-05-12T02:06:03;95313.41;;;6.35;89.93
22047;BME280;11187;49.412;20.956;2023-05-12T02:08:37;95312.56;;;6.30;90.02
22047;BME280;11187;49.412;20.956;2023-05-12T02:11:23;95315.09;;;6.28;90.18
22047;BME280;11187;49.412;20.956;2023-05-12T02:13:57;95306.63;;;6.27;90.21
22047;BME280;11187;49.412;20.956;2023-05-12T02:16:43;95307.50;;;6.25;90.35
22047;BME280;11187;49.412;20.956;2023-05-12T02:19:19;95306.63;;;6.21;90.42
22047;BME280;11187;49.412;20.956;2023-05-12T02:22:06;95311.72;;;6.23;90.56
22047;BME280;11187;49.412;20.956;2023-05-12T02:24:40;95311.69;;;6.17;90.76
22047;BME280;11187;49.412;20.956;2023-05-12T02:27:26;95309.16;;;6.15;90.98
22047;BME280;11187;49.412;20.956;2023-05-12T02:30:13;95310.88;;;6.13;90.92
22047;BME280;11187;49.412;20.956;2023-05-12T02:33:07;95304.06;;;6.11;90.88
22047;BME280;11187;49.412;20.956;2023-05-12T02:35:41;95308.28;;;6.09;90.90
22047;BME280;11187;49.412;20.956;2023-05-12T02:38:27;95310.81;;;6.05;91.46
22047;BME280;11187;49.412;20.956;2023-05-12T02:41:01;95309.13;;;6.01;91.54
22047;BME280;11187;49.412;20.956;2023-05-12T02:43:47;95308.28;;;6.01;91.69
22047;BME280;11187;49.412;20.956;2023-05-12T02:46:21;95309.13;;;6.01;91.56
22047;BME280;11187;49.412;20.956;2023-05-12T02:49:14;95310.81;;;5.98;92.67
22047;BME280;11187;49.412;20.956;2023-05-12T02:51:48;95312.50;;;5.99;91.77
22047;BME280;11187;49.412;20.956;2023-05-12T02:54:34;95313.34;;;5.99;91.79
22047;BME280;11187;49.412;20.956;2023-05-12T02:57:09;95306.56;;;5.97;91.98
22047;BME280;11187;49.412;20.956;2023-05-12T03:00:03;95308.25;;;5.95;92.59
22047;BME280;11187;49.412;20.956;2023-05-12T03:02:57;95305.72;;;5.95;92.38
22047;BME280;11187;49.412;20.956;2023-05-12T03:05:51;95308.25;;;5.95;92.47
22047;BME280;11187;49.412;20.956;2023-05-12T03:08:28;95309.13;;;5.95;92.23
22047;BME280;11187;49.412;20.956;2023-05-12T03:11:21;95308.28;;;5.96;92.34
22047;BME280;11187;49.412;20.956;2023-05-12T03:13:55;95304.88;;;5.94;92.26
22047;BME280;11187;49.412;20.956;2023-05-12T03:16:41;95320.13;;;5.94;92.61
22047;BME280;11187;49.412;20.956;2023-05-12T03:19:15;95312.47;;;5.93;92.65
22047;BME280;11187;49.412;20.956;2023-05-12T03:22:02;95313.34;;;5.95;92.94
22047;BME280;11187;49.412;20.956;2023-05-12T03:24:36;95310.75;;;5.92;92.81
22047;BME280;11187;49.412;20.956;2023-05-12T03:27:22;95314.16;;;5.92;92.81
22047;BME280;11187;49.412;20.956;2023-05-12T03:29:56;95314.97;;;5.88;92.92
22047;BME280;11187;49.412;20.956;2023-05-12T03:32:50;95316.72;;;5.91;93.02
22047;BME280;11187;49.412;20.956;2023-05-12T03:35:24;95309.94;;;5.93;92.81
22047;BME280;11187;49.412;20.956;2023-05-12T03:38:10;95318.38;;;5.89;93.33
22047;BME280;11187;49.412;20.956;2023-05-12T03:40:44;95322.66;;;5.93;93.02
22047;BME280;11187;49.412;20.956;2023-05-12T03:43:33;95315.06;;;5.96;93.50
22047;BME280;11187;49.412;20.956;2023-05-12T03:46:08;95318.44;;;5.96;93.12
22047;BME280;11187;49.412;20.956;2023-05-12T03:49:01;95317.63;;;6.02;93.22
22047;BME280;11187;49.412;20.956;2023-05-12T03:51:55;95326.91;;;6.01;93.32
22047;BME280;11187;49.412;20.956;2023-05-12T03:54:49;95329.47;;;6.04;93.24
22047;BME280;11187;49.412;20.956;2023-05-12T03:57:23;95335.38;;;6.03;93.81
22047;BME280;11187;49.412;20.956;2023-05-12T04:00:10;95335.41;;;6.06;93.88
22047;BME280;11187;49.412;20.956;2023-05-12T04:02:44;95337.13;;;6.12;93.21
22047;BME280;11187;49.412;20.956;2023-05-12T04:05:30;95341.38;;;6.16;94.01
22047;BME280;11187;49.412;20.956;2023-05-12T04:08:04;95332.03;;;6.21;93.58
22047;BME280;11187;49.412;20.956;2023-05-12T04:10:58;95344.78;;;6.27;93.70
22047;BME280;11187;49.412;20.956;2023-05-12T04:13:33;95341.38;;;6.30;93.10
22047;BME280;11187;49.412;20.956;2023-05-12T04:16:26;95343.09;;;6.37;92.65
22047;BME280;11187;49.412;20.956;2023-05-12T04:19:01;95346.50;;;6.45;93.38
22047;BME280;11187;49.412;20.956;2023-05-12T04:21:55;95349.91;;;6.52;93.43
22047;BME280;11187;49.412;20.956;2023-05-12T04:24:42;95351.63;;;6.61;93.15
22047;BME280;11187;49.412;20.956;2023-05-12T04:27:16;95353.28;;;6.69;93.29
22047;BME280;11187;49.412;20.956;2023-05-12T04:30:02;95355.00;;;6.80;93.10
22047;BME280;11187;49.412;20.956;2023-05-12T04:32:56;95343.97;;;6.88;93.35
22047;BME280;11187;49.412;20.956;2023-05-12T04:35:54;95356.66;;;6.99;92.34
22047;BME280;11187;49.412;20.956;2023-05-12T04:38:48;95360.06;;;7.10;92.01
22047;BME280;11187;49.412;20.956;2023-05-12T04:41:22;95351.56;;;7.19;90.82
22047;BME280;11187;49.412;20.956;2023-05-12T04:44:15;95354.09;;;7.30;91.09
22047;BME280;11187;49.412;20.956;2023-05-12T04:46:49;95351.53;;;7.38;90.44
22047;BME280;11187;49.412;20.956;2023-05-12T04:49:35;95356.59;;;7.47;90.11
22047;BME280;11187;49.412;20.956;2023-05-12T04:52:09;95352.34;;;7.53;90.11
22047;BME280;11187;49.412;20.956;2023-05-12T04:54:49;95357.44;;;7.60;89.62
22047;BME280;11187;49.412;20.956;2023-05-12T04:57:28;95356.53;;;7.74;89.57
22047;BME280;11187;49.412;20.956;2023-05-12T05:00:05;95356.41;;;8.02;89.44
22047;BME280;11187;49.412;20.956;2023-05-12T05:02:52;95363.91;;;8.41;89.17
22047;BME280;11187;49.412;20.956;2023-05-12T05:05:26;95370.47;;;8.77;88.14
22047;BME280;11187;49.412;20.956;2023-05-12T05:08:12;95365.06;;;9.12;86.31
22047;BME280;11187;49.412;20.956;2023-05-12T05:10:48;95354.53;;;9.45;85.52
22047;BME280;11187;49.412;20.956;2023-05-12T05:13:35;95361.84;;;9.80;84.57
22047;BME280;11187;49.412;20.956;2023-05-12T05:16:09;95365.72;;;10.12;82.78
22047;BME280;11187;49.412;20.956;2023-05-12T05:18:55;95366.22;;;10.40;80.77
22047;BME280;11187;49.412;20.956;2023-05-12T05:21:32;95365.19;;;10.53;80.37
22047;BME280;11187;49.412;20.956;2023-05-12T05:24:18;95369.34;;;10.60;79.20
22047;BME280;11187;49.412;20.956;2023-05-12T05:26:52;95369.03;;;10.82;78.00
22047;BME280;11187;49.412;20.956;2023-05-12T05:29:45;95367.09;;;10.98;77.27
22047;BME280;11187;49.412;20.956;2023-05-12T05:32:39;95372.13;;;11.04;75.68
22047;BME280;11187;49.412;20.956;2023-05-12T05:35:13;95372.06;;;11.07;75.85
22047;BME280;11187;49.412;20.956;2023-05-12T05:37:59;95374.47;;;11.16;76.30
22047;BME280;11187;49.412;20.956;2023-05-12T05:40:33;95374.22;;;11.32;75.79
22047;BME280;11187;49.412;20.956;2023-05-12T05:43:32;95374.97;;;11.38;74.81
22047;BME280;11187;49.412;20.956;2023-05-12T05:46:06;95381.59;;;11.48;74.21
22047;BME280;11187;49.412;20.956;2023-05-12T05:48:53;95389.22;;;11.53;74.82
22047;BME280;11187;49.412;20.956;2023-05-12T05:51:27;95383.16;;;11.57;74.22
22047;BME280;11187;49.412;20.956;2023-05-12T05:54:13;95378.63;;;11.71;73.84
22047;BME280;11187;49.412;20.956;2023-05-12T05:56:47;95386.03;;;11.87;72.02
22047;BME280;11187;49.412;20.956;2023-05-12T05:59:40;95384.25;;;11.92;70.95
22047;BME280;11187;49.412;20.956;2023-05-12T06:02:14;95393.63;;;11.95;70.29
22047;BME280;11187;49.412;20.956;2023-05-12T06:05:08;95396.16;;;11.96;69.62
22047;BME280;11187;49.412;20.956;2023-05-12T06:08:03;95401.28;;;11.98;68.67
22047;BME280;11187;49.412;20.956;2023-05-12T06:10:58;95402.84;;;12.03;68.12
22047;BME280;11187;49.412;20.956;2023-05-12T06:13:34;95401.88;;;12.10;67.79
22047;BME280;11187;49.412;20.956;2023-05-12T06:16:21;95405.09;;;12.22;67.26
22047;BME280;11187;49.412;20.956;2023-05-12T06:18:55;95399.53;;;12.42;67.76
22047;BME280;11187;49.412;20.956;2023-05-12T06:21:48;95397.75;;;12.84;66.03
22047;BME280;11187;49.412;20.956;2023-05-12T06:24:42;95402.94;;;13.19;64.73
22047;BME280;11187;49.412;20.956;2023-05-12T06:27:36;95406.56;;;13.47;64.12
22047;BME280;11187;49.412;20.956;2023-05-12T06:30:30;95400.34;;;13.89;62.47
22047;BME280;11187;49.412;20.956;2023-05-12T06:33:24;95398.53;;;14.24;60.13
22047;BME280;11187;49.412;20.956;2023-05-12T06:35:58;95401.81;;;14.60;59.37
22047;BME280;11187;49.412;20.956;2023-05-12T06:38:51;95398.06;;;14.98;59.16
22047;BME280;11187;49.412;20.956;2023-05-12T06:41:45;95392.06;;;15.26;55.86
22047;BME280;11187;49.412;20.956;2023-05-12T06:44:19;95395.44;;;15.53;56.75
22047;BME280;11187;49.412;20.956;2023-05-12T06:47:05;95392.00;;;15.81;55.67
22047;BME280;11187;49.412;20.956;2023-05-12T06:49:39;95389.91;;;16.16;53.61
22047;BME280;11187;49.412;20.956;2023-05-12T06:52:33;95388.88;;;16.43;53.20
22047;BME280;11187;49.412;20.956;2023-05-12T06:55:06;95388.47;;;16.78;52.14
22047;BME280;11187;49.412;20.956;2023-05-12T06:57:59;95390.78;;;17.07;50.02
22047;BME280;11187;49.412;20.956;2023-05-12T07:00:33;95400.25;;;17.30;49.03
22047;BME280;11187;49.412;20.956;2023-05-12T07:03:19;95397.94;;;17.65;48.18
22047;BME280;11187;49.412;20.956;2023-05-12T07:05:53;95393.69;;;17.85;46.27
22047;BME280;11187;49.412;20.956;2023-05-12T07:08:39;95391.09;;;18.05;46.32
22047;BME280;11187;49.412;20.956;2023-05-12T07:11:13;95385.41;;;18.36;45.10
22047;BME280;11187;49.412;20.956;2023-05-12T07:14:00;95392.44;;;18.53;43.04
22047;BME280;11187;49.412;20.956;2023-05-12T07:16:34;95394.88;;;18.56;42.91
22047;BME280;11187;49.412;20.956;2023-05-12T07:19:20;95393.78;;;18.62;41.47
22047;BME280;11187;49.412;20.956;2023-05-12T07:21:54;95390.53;;;18.57;41.45
22047;BME280;11187;49.412;20.956;2023-05-12T07:24:48;95392.19;;;18.78;41.60
22047;BME280;11187;49.412;20.956;2023-05-12T07:27:21;95388.91;;;19.11;41.53
22047;BME280;11187;49.412;20.956;2023-05-12T07:30:08;95397.50;;;18.94;38.69
22047;BME280;11187;49.412;20.956;2023-05-12T07:32:41;95402.34;;;18.83;40.78
22047;BME280;11187;49.412;20.956;2023-05-12T07:35:27;95398.94;;;18.83;40.55
22047;BME280;11187;49.412;20.956;2023-05-12T07:38:01;95397.00;;;18.86;40.09
22047;BME280;11187;49.412;20.956;2023-05-12T07:40:54;95403.94;;;19.05;39.40
22047;BME280;11187;49.412;20.956;2023-05-12T07:43:50;95401.06;;;19.11;39.23
22047;BME280;11187;49.412;20.956;2023-05-12T07:46:23;95397.28;;;19.35;38.90
22047;BME280;11187;49.412;20.956;2023-05-12T07:49:09;95392.47;;;19.45;39.22
22047;BME280;11187;49.412;20.956;2023-05-12T07:51:43;95397.16;;;19.56;39.08
22047;BME280;11187;49.412;20.956;2023-05-12T07:54:29;95405.19;;;19.69;38.75
22047;BME280;11187;49.412;20.956;2023-05-12T07:57:03;95399.25;;;19.84;39.47
22047;BME280;11187;49.412;20.956;2023-05-12T07:59:49;95394.09;;;20.00;38.02
22047;BME280;11187;49.412;20.956;2023-05-12T08:02:25;95399.94;;;20.21;38.95
22047;BME280;11187;49.412;20.956;2023-05-12T08:05:11;95399.44;;;20.48;37.89
22047;BME280;11187;49.412;20.956;2023-05-12T08:07:48;95403.19;;;20.59;36.53
22047;BME280;11187;49.412;20.956;2023-05-12T08:10:34;95400.75;;;20.56;37.12
22047;BME280;11187;49.412;20.956;2023-05-12T08:13:08;95406.22;;;20.50;37.75
22047;BME280;11187;49.412;20.956;2023-05-12T08:15:54;95409.81;;;20.65;37.82
22047;BME280;11187;49.412;20.956;2023-05-12T08:18:28;95410.94;;;20.93;38.20
22047;BME280;11187;49.412;20.956;2023-05-12T08:21:14;95402.44;;;21.21;35.79
22047;BME280;11187;49.412;20.956;2023-05-12T08:23:48;95401.50;;;21.38;36.03
22047;BME280;11187;49.412;20.956;2023-05-12T08:26:34;95409.66;;;21.47;36.25
22047;BME280;11187;49.412;20.956;2023-05-12T08:29:08;95405.69;;;21.56;35.87
22047;BME280;11187;49.412;20.956;2023-05-12T08:32:01;95403.81;;;21.44;35.31
22047;BME280;11187;49.412;20.956;2023-05-12T08:34:55;95400.53;;;21.71;34.76
22047;BME280;11187;49.412;20.956;2023-05-12T08:37:29;95403.25;;;21.69;34.63
22047;BME280;11187;49.412;20.956;2023-05-12T08:40:20;95407.25;;;21.75;36.01
22047;BME280;11187;49.412;20.956;2023-05-12T08:43:06;95402.91;;;21.89;33.38
22047;BME280;11187;49.412;20.956;2023-05-12T08:45:58;95394.25;;;21.59;34.23
22047;BME280;11187;49.412;20.956;2023-05-12T08:48:33;95398.16;;;21.36;34.16
22047;BME280;11187;49.412;20.956;2023-05-12T08:51:20;95387.59;;;21.69;35.70
22047;BME280;11187;49.412;20.956;2023-05-12T08:53:55;95388.78;;;22.08;34.36
22047;BME280;11187;49.412;20.956;2023-05-12T08:56:43;95393.13;;;22.38;33.43
22047;BME280;11187;49.412;20.956;2023-05-12T08:59:22;95383.53;;;22.67;34.16
22047;BME280;11187;49.412;20.956;2023-05-12T09:02:09;95387.34;;;22.61;33.25
22047;BME280;11187;49.412;20.956;2023-05-12T09:04:42;95379.88;;;22.69;33.05
22047;BME280;11187;49.412;20.956;2023-05-12T09:07:29;95383.28;;;22.84;33.40
22047;BME280;11187;49.412;20.956;2023-05-12T09:10:02;95387.03;;;22.66;32.63
22047;BME280;11187;49.412;20.956;2023-05-12T09:13:02;95392.38;;;22.50;32.26
22047;BME280;11187;49.412;20.956;2023-05-12T09:15:44;95387.53;;;22.58;31.80
22047;BME280;11187;49.412;20.956;2023-05-12T09:21:27;95390.22;;;22.85;33.13
22047;BME280;11187;49.412;20.956;2023-05-12T09:24:08;95386.06;;;22.96;32.38
22047;BME280;11187;49.412;20.956;2023-05-12T09:26:50;95387.06;;;22.80;30.71
22047;BME280;11187;49.412;20.956;2023-05-12T09:29:23;95393.13;;;22.52;32.74
22047;BME280;11187;49.412;20.956;2023-05-12T09:32:34;95390.56;;;22.79;32.44
22047;BME280;11187;49.412;20.956;2023-05-12T09:35:09;95392.28;;;22.80;31.86
22047;BME280;11187;49.412;20.956;2023-05-12T09:38:09;95401.63;;;23.11;31.38
22047;BME280;11187;49.412;20.956;2023-05-12T09:40:44;95388.59;;;22.97;32.29
22047;BME280;11187;49.412;20.956;2023-05-12T09:43:43;95391.88;;;22.86;32.05
22047;BME280;11187;49.412;20.956;2023-05-12T09:49:04;95401.25;;;23.18;31.79
22047;BME280;11187;49.412;20.956;2023-05-12T09:51:39;95385.59;;;23.18;32.05
22047;BME280;11187;49.412;20.956;2023-05-12T09:54:30;95405.88;;;22.85;31.87
22047;BME280;11187;49.412;20.956;2023-05-12T09:57:05;95403.56;;;22.38;31.47
22047;BME280;11187;49.412;20.956;2023-05-12T09:59:52;95394.72;;;22.26;32.21
22047;BME280;11187;49.412;20.956;2023-05-12T10:02:26;95378.94;;;22.27;31.79
22047;BME280;11187;49.412;20.956;2023-05-12T10:05:22;95395.31;;;22.15;31.75
22047;BME280;11187;49.412;20.956;2023-05-12T10:07:56;95385.31;;;22.38;32.45
22047;BME280;11187;49.412;20.956;2023-05-12T10:10:55;95380.44;;;22.75;30.91
22047;BME280;11187;49.412;20.956;2023-05-12T10:13:51;95366.84;;;22.55;30.65
22047;BME280;11187;49.412;20.956;2023-05-12T10:16:45;95376.19;;;22.00;31.77
22047;BME280;11187;49.412;20.956;2023-05-12T10:19:20;95375.84;;;21.62;32.76
22047;BME280;11187;49.412;20.956;2023-05-12T10:22:09;95366.78;;;21.98;31.42
22047;BME280;11187;49.412;20.956;2023-05-12T10:24:47;95362.69;;;21.94;31.84
22047;BME280;11187;49.412;20.956;2023-05-12T10:27:36;95372.59;;;22.03;31.45
22047;BME280;11187;49.412;20.956;2023-05-12T10:30:10;95381.94;;;21.77;30.86
22047;BME280;11187;49.412;20.956;2023-05-12T10:32:58;95369.16;;;21.58;32.09
22047;BME280;11187;49.412;20.956;2023-05-12T10:35:32;95374.41;;;21.26;31.96
22047;BME280;11187;49.412;20.956;2023-05-12T10:38:35;95373.75;;;20.91;32.41
22047;BME280;11187;49.412;20.956;2023-05-12T10:41:30;95365.69;;;20.63;33.24
22047;BME280;11187;49.412;20.956;2023-05-12T10:44:27;95374.94;;;20.52;32.84
22047;BME280;11187;49.412;20.956;2023-05-12T10:47:11;95375.69;;;20.05;33.79
22047;BME280;11187;49.412;20.956;2023-05-12T10:50:05;95364.84;;;19.96;33.63
22047;BME280;11187;49.412;20.956;2023-05-12T10:53:02;95350.94;;;19.97;32.91
22047;BME280;11187;49.412;20.956;2023-05-12T10:55:42;95360.81;;;20.24;34.33
22047;BME280;11187;49.412;20.956;2023-05-12T11:02:04;95352.56;;;20.16;34.03
22047;BME280;11187;49.412;20.956;2023-05-12T11:05:00;95363.06;;;20.30;33.68
22047;BME280;11187;49.412;20.956;2023-05-12T11:07:55;95352.59;;;20.32;34.49
22047;BME280;11187;49.412;20.956;2023-05-12T11:10:49;95351.66;;;20.17;35.00
22047;BME280;11187;49.412;20.956;2023-05-12T11:13:43;95349.78;;;20.52;33.82
22047;BME280;11187;49.412;20.956;2023-05-12T11:16:42;95348.41;;;20.78;34.75
22047;BME280;11187;49.412;20.956;2023-05-12T11:19:37;95345.13;;;20.41;33.58
22047;BME280;11187;49.412;20.956;2023-05-12T11:22:31;95356.66;;;20.04;34.67
22047;BME280;11187;49.412;20.956;2023-05-12T11:25:10;95354.97;;;20.03;35.66
22047;BME280;11187;49.412;20.956;2023-05-12T11:27:57;95347.59;;;20.11;34.99
22047;BME280;11187;49.412;20.956;2023-05-12T11:30:30;95349.47;;;20.25;35.09
22047;BME280;11187;49.412;20.956;2023-05-12T11:33:20;95353.09;;;20.22;35.11
22047;BME280;11187;49.412;20.956;2023-05-12T11:35:56;95349.44;;;19.76;35.16
22047;BME280;11187;49.412;20.956;2023-05-12T11:38:50;95348.13;;;19.67;35.55
22047;BME280;11187;49.412;20.956;2023-05-12T11:41:44;95346.50;;;19.65;34.80
22047;BME280;11187;49.412;20.956;2023-05-12T11:44:31;95336.75;;;19.35;35.79
22047;BME280;11187;49.412;20.956;2023-05-12T11:47:21;95338.19;;;19.40;35.45
22047;BME280;11187;49.412;20.956;2023-05-12T11:49:54;95335.41;;;19.44;36.01
22047;BME280;11187;49.412;20.956;2023-05-12T11:52:48;95328.50;;;19.44;35.68
22047;BME280;11187;49.412;20.956;2023-05-12T11:55:23;95329.75;;;19.53;36.95
22047;BME280;11187;49.412;20.956;2023-05-12T11:58:26;95329.03;;;19.51;36.07
22047;BME280;11187;49.412;20.956;2023-05-12T12:01:09;95324.44;;;19.38;35.99
22047;BME280;11187;49.412;20.956;2023-05-12T12:03:56;95327.72;;;19.25;36.69
22047;BME280;11187;49.412;20.956;2023-05-12T12:06:29;95325.56;;;19.15;37.22
22047;BME280;11187;49.412;20.956;2023-05-12T12:09:32;95324.81;;;19.13;36.54
22047;BME280;11187;49.412;20.956;2023-05-12T12:12:27;95322.59;;;19.06;37.16
22047;BME280;11187;49.412;20.956;2023-05-12T12:15:21;95328.22;;;18.96;37.52
22047;BME280;11187;49.412;20.956;2023-05-12T12:17:54;95329.13;;;18.95;37.58
22047;BME280;11187;49.412;20.956;2023-05-12T12:20:48;95317.81;;;18.79;37.48
22047;BME280;11187;49.412;20.956;2023-05-12T12:23:21;95327.13;;;18.83;37.97
22047;BME280;11187;49.412;20.956;2023-05-12T12:26:19;95322.50;;;18.90;37.91
22047;BME280;11187;49.412;20.956;2023-05-12T12:28:53;95323.09;;;18.95;37.55
22047;BME280;11187;49.412;20.956;2023-05-12T12:31:40;95327.22;;;18.99;37.73
22047;BME280;11187;49.412;20.956;2023-05-12T12:34:14;95317.63;;;19.01;37.13
22047;BME280;11187;49.412;20.956;2023-05-12T12:37:09;95314.09;;;19.02;38.04
22047;BME280;11187;49.412;20.956;2023-05-12T12:39:42;95318.28;;;19.05;37.90
22047;BME280;11187;49.412;20.956;2023-05-12T12:42:37;95320.88;;;19.05;37.36
22047;BME280;11187;49.412;20.956;2023-05-12T12:45:12;95321.28;;;18.97;36.89
22047;BME280;11187;49.412;20.956;2023-05-12T12:47:59;95314.00;;;18.86;37.76
22047;BME280;11187;49.412;20.956;2023-05-12T12:50:34;95322.06;;;18.80;38.03
22047;BME280;11187;49.412;20.956;2023-05-12T12:53:30;95322.63;;;18.68;38.13
22047;BME280;11187;49.412;20.956;2023-05-12T12:56:25;95322.63;;;18.68;38.38
22047;BME280;11187;49.412;20.956;2023-05-12T12:59:19;95319.75;;;18.55;39.13
22047;BME280;11187;49.412;20.956;2023-05-12T13:01:52;95325.00;;;18.34;39.10
22047;BME280;11187;49.412;20.956;2023-05-12T13:04:40;95318.09;;;18.35;39.41
22047;BME280;11187;49.412;20.956;2023-05-12T13:07:14;95313.38;;;18.43;39.06
22047;BME280;11187;49.412;20.956;2023-05-12T13:10:02;95315.84;;;18.46;39.24
22047;BME280;11187;49.412;20.956;2023-05-12T13:12:36;95309.34;;;18.38;39.03
22047;BME280;11187;49.412;20.956;2023-05-12T13:15:24;95308.06;;;18.27;39.52
22047;BME280;11187;49.412;20.956;2023-05-12T13:17:57;95308.63;;;18.34;39.72
22047;BME280;11187;49.412;20.956;2023-05-12T13:20:51;95305.75;;;18.40;38.69
22047;BME280;11187;49.412;20.956;2023-05-12T13:23:53;95293.19;;;18.50;39.58
22047;BME280;11187;49.412;20.956;2023-05-12T13:26:47;95300.59;;;18.57;39.29
22047;BME280;11187;49.412;20.956;2023-05-12T13:29:41;95298.66;;;18.63;39.51
22047;BME280;11187;49.412;20.956;2023-05-12T13:32:35;95292.84;;;18.57;39.53
22047;BME280;11187;49.412;20.956;2023-05-12T13:35:29;95299.31;;;18.49;40.26
22047;BME280;11187;49.412;20.956;2023-05-12T13:38:02;95294.47;;;18.41;40.07
22047;BME280;11187;49.412;20.956;2023-05-12T13:40:50;95292.03;;;18.38;40.92
22047;BME280;11187;49.412;20.956;2023-05-12T13:43:23;95286.78;;;18.40;40.14
22047;BME280;11187;49.412;20.956;2023-05-12T13:46:17;95292.81;;;18.40;40.12
22047;BME280;11187;49.412;20.956;2023-05-12T13:48:50;95297.06;;;18.41;40.31
22047;BME280;11187;49.412;20.956;2023-05-12T13:51:46;95287.00;;;18.35;40.95
22047;BME280;11187;49.412;20.956;2023-05-12T13:54:19;95291.88;;;18.22;40.62
22047;BME280;11187;49.412;20.956;2023-05-12T13:57:06;95283.41;;;18.19;40.82
22047;BME280;11187;49.412;20.956;2023-05-12T13:59:39;95289.44;;;18.19;41.04
22047;BME280;11187;49.412;20.956;2023-05-12T14:02:33;95281.47;;;18.24;41.36
22047;BME280;11187;49.412;20.956;2023-05-12T14:05:06;95283.84;;;18.28;40.74
22047;BME280;11187;49.412;20.956;2023-05-12T14:08:02;95305.34;;;18.30;40.87
22047;BME280;11187;49.412;20.956;2023-05-12T14:10:56;95301.69;;;17.97;40.91
22047;BME280;11187;49.412;20.956;2023-05-12T14:13:50;95303.97;;;17.84;40.89
22047;BME280;11187;49.412;20.956;2023-05-12T14:16:23;95296.31;;;17.81;41.09
22047;BME280;11187;49.412;20.956;2023-05-12T14:19:10;95299.50;;;17.67;41.65
22047;BME280;11187;49.412;20.956;2023-05-12T14:21:43;95296.44;;;17.57;41.74
22047;BME280;11187;49.412;20.956;2023-05-12T14:24:37;95293.47;;;17.46;42.14
22047;BME280;11187;49.412;20.956;2023-05-12T14:27:10;95289.41;;;17.40;42.37
22047;BME280;11187;49.412;20.956;2023-05-12T14:29:57;95287.72;;;17.39;42.12
22047;BME280;11187;49.412;20.956;2023-05-12T14:32:51;95288.56;;;17.40;42.27